sensor_id;sensor_type;location;lat;lon;timestamp;temperature;humidity
10453;DHT22;5274;51.992;8.518;2024-01-30T00:02:23;8.40;68.20
10453;DHT22;5274;51.992;8.518;2024-01-30T00:04:49;8.40;68.00
10453;DHT22;5274;51.992;8.518;2024-01-30T00:07:14;8.50;67.80
10453;DHT22;5274;51.992;8.518;2024-01-30T00:09:40;8.40;68.00
10453;DHT22;5274;51.992;8.518;2024-01-30T00:12:06;8.40;68.20
10453;DHT22;5274;51.992;8.518;2024-01-30T00:14:31;8.50;68.30
10453;DHT22;5274;51.992;8.518;2024-01-30T00:16:57;8.50;68.00
10453;DHT22;5274;51.992;8.518;2024-01-30T00:19:22;8.50;68.20
10453;DHT22;5274;51.992;8.518;2024-01-30T00:21:48;8.40;68.50
10453;DHT22;5274;51.992;8.518;2024-01-30T00:24:13;8.60;68.30
10453;DHT22;5274;51.992;8.518;2024-01-30T00:26:39;8.50;68.40
10453;DHT22;5274;51.992;8.518;2024-01-30T00:29:04;8.60;68.40
10453;DHT22;5274;51.992;8.518;2024-01-30T00:31:30;8.60;68.20
10453;DHT22;5274;51.992;8.518;2024-01-30T00:33:55;8.50;68.50
10453;DHT22;5274;51.992;8.518;2024-01-30T00:36:21;8.40;68.70
10453;DHT22;5274;51.992;8.518;2024-01-30T00:38:46;8.60;68.50
10453;DHT22;5274;51.992;8.518;2024-01-30T00:41:12;8.50;68.90
10453;DHT22;5274;51.992;8.518;2024-01-30T00:43:38;8.50;68.90
10453;DHT22;5274;51.992;8.518;2024-01-30T00:46:03;8.50;68.90
10453;DHT22;5274;51.992;8.518;2024-01-30T00:48:29;8.50;68.80
10453;DHT22;5274;51.992;8.518;2024-01-30T00:50:55;8.50;69.10
10453;DHT22;5274;51.992;8.518;2024-01-30T00:53:20;8.60;69.00
10453;DHT22;5274;51.992;8.518;2024-01-30T00:55:46;8.40;69.10
10453;DHT22;5274;51.992;8.518;2024-01-30T00:58:11;8.30;69.90
10453;DHT22;5274;51.992;8.518;2024-01-30T01:00:37;8.40;69.80
10453;DHT22;5274;51.992;8.518;2024-01-30T01:03:02;8.50;69.10
10453;DHT22;5274;51.992;8.518;2024-01-30T01:05:28;8.60;68.90
10453;DHT22;5274;51.992;8.518;2024-01-30T01:07:53;8.60;68.70
10453;DHT22;5274;51.992;8.518;2024-01-30T01:10:19;8.60;68.70
10453;DHT22;5274;51.992;8.518;2024-01-30T01:12:45;8.50;69.00
10453;DHT22;5274;51.992;8.518;2024-01-30T01:15:11;8.40;69.50
10453;DHT22;5274;51.992;8.518;2024-01-30T01:17:37;8.40;69.30
10453;DHT22;5274;51.992;8.518;2024-01-30T01:20:04;8.40;69.30
10453;DHT22;5274;51.992;8.518;2024-01-30T01:22:30;8.40;69.20
10453;DHT22;5274;51.992;8.518;2024-01-30T01:24:56;8.30;69.60
10453;DHT22;5274;51.992;8.518;2024-01-30T01:27:22;8.40;69.50
10453;DHT22;5274;51.992;8.518;2024-01-30T01:29:47;8.50;69.30
10453;DHT22;5274;51.992;8.518;2024-01-30T01:32:13;8.40;69.40
10453;DHT22;5274;51.992;8.518;2024-01-30T01:34:38;8.50;69.40
10453;DHT22;5274;51.992;8.518;2024-01-30T01:37:04;8.40;69.40
10453;DHT22;5274;51.992;8.518;2024-01-30T01:39:29;8.30;69.70
10453;DHT22;5274;51.992;8.518;2024-01-30T01:41:55;8.20;70.10
10453;DHT22;5274;51.992;8.518;2024-01-30T01:44:20;8.30;70.10
10453;DHT22;5274;51.992;8.518;2024-01-30T01:46:46;8.30;69.80
10453;DHT22;5274;51.992;8.518;2024-01-30T01:49:12;8.20;69.90
10453;DHT22;5274;51.992;8.518;2024-01-30T01:51:37;8.20;70.20
10453;DHT22;5274;51.992;8.518;2024-01-30T01:54:04;8.20;70.10
10453;DHT22;5274;51.992;8.518;2024-01-30T01:56:33;8.00;70.50
10453;DHT22;5274;51.992;8.518;2024-01-30T01:59:04;8.10;70.80
10453;DHT22;5274;51.992;8.518;2024-01-30T02:01:31;8.10;70.40
10453;DHT22;5274;51.992;8.518;2024-01-30T02:03:58;8.20;70.60
10453;DHT22;5274;51.992;8.518;2024-01-30T02:06:23;8.30;70.00
10453;DHT22;5274;51.992;8.518;2024-01-30T02:08:49;8.30;69.70
10453;DHT22;5274;51.992;8.518;2024-01-30T02:11:14;8.30;69.90
10453;DHT22;5274;51.992;8.518;2024-01-30T02:13:41;8.20;70.10
10453;DHT22;5274;51.992;8.518;2024-01-30T02:16:07;8.20;70.30
10453;DHT22;5274;51.992;8.518;2024-01-30T02:18:32;8.20;70.20
10453;DHT22;5274;51.992;8.518;2024-01-30T02:20:58;8.30;70.10
10453;DHT22;5274;51.992;8.518;2024-01-30T02:23:27;8.20;69.90
10453;DHT22;5274;51.992;8.518;2024-01-30T02:25:53;8.10;70.20
10453;DHT22;5274;51.992;8.518;2024-01-30T02:28:19;8.10;70.60
10453;DHT22;5274;51.992;8.518;2024-01-30T02:30:46;8.20;70.20
10453;DHT22;5274;51.992;8.518;2024-01-30T02:33:12;8.20;70.20
10453;DHT22;5274;51.992;8.518;2024-01-30T02:35:37;8.10;70.50
10453;DHT22;5274;51.992;8.518;2024-01-30T02:38:03;8.10;70.80
10453;DHT22;5274;51.992;8.518;2024-01-30T02:40:29;8.10;70.80
10453;DHT22;5274;51.992;8.518;2024-01-30T02:42:55;8.20;70.70
10453;DHT22;5274;51.992;8.518;2024-01-30T02:45:21;8.20;70.60
10453;DHT22;5274;51.992;8.518;2024-01-30T02:47:47;8.20;70.30
10453;DHT22;5274;51.992;8.518;2024-01-30T02:50:12;8.10;70.90
10453;DHT22;5274;51.992;8.518;2024-01-30T02:52:38;8.20;70.70
10453;DHT22;5274;51.992;8.518;2024-01-30T02:55:04;8.10;70.50
10453;DHT22;5274;51.992;8.518;2024-01-30T02:57:29;8.20;70.70
10453;DHT22;5274;51.992;8.518;2024-01-30T02:59:55;8.20;70.50
10453;DHT22;5274;51.992;8.518;2024-01-30T03:02:22;8.20;70.40
10453;DHT22;5274;51.992;8.518;2024-01-30T03:04:47;8.30;70.10
10453;DHT22;5274;51.992;8.518;2024-01-30T03:07:13;8.30;70.10
10453;DHT22;5274;51.992;8.518;2024-01-30T03:09:38;8.30;70.20
10453;DHT22;5274;51.992;8.518;2024-01-30T03:12:06;8.30;70.20
10453;DHT22;5274;51.992;8.518;2024-01-30T03:14:31;8.20;70.30
10453;DHT22;5274;51.992;8.518;2024-01-30T03:16:57;8.20;70.40
10453;DHT22;5274;51.992;8.518;2024-01-30T03:19:23;8.30;70.30
10453;DHT22;5274;51.992;8.518;2024-01-30T03:21:49;8.10;70.30
10453;DHT22;5274;51.992;8.518;2024-01-30T03:24:14;8.20;70.50
10453;DHT22;5274;51.992;8.518;2024-01-30T03:26:39;8.20;70.40
10453;DHT22;5274;51.992;8.518;2024-01-30T03:29:05;8.20;70.50
10453;DHT22;5274;51.992;8.518;2024-01-30T03:31:30;8.10;70.40
10453;DHT22;5274;51.992;8.518;2024-01-30T03:33:56;7.90;71.10
10453;DHT22;5274;51.992;8.518;2024-01-30T03:36:21;7.90;71.30
10453;DHT22;5274;51.992;8.518;2024-01-30T03:38:47;8.00;71.00
10453;DHT22;5274;51.992;8.518;2024-01-30T03:41:12;8.00;70.90
10453;DHT22;5274;51.992;8.518;2024-01-30T03:43:38;7.80;71.30
10453;DHT22;5274;51.992;8.518;2024-01-30T03:46:03;8.00;71.30
10453;DHT22;5274;51.992;8.518;2024-01-30T03:48:29;8.00;70.90
10453;DHT22;5274;51.992;8.518;2024-01-30T03:50:55;8.00;70.90
10453;DHT22;5274;51.992;8.518;2024-01-30T03:53:21;8.00;70.50
10453;DHT22;5274;51.992;8.518;2024-01-30T03:55:46;8.00;70.70
10453;DHT22;5274;51.992;8.518;2024-01-30T03:58:12;8.10;70.60
10453;DHT22;5274;51.992;8.518;2024-01-30T04:00:37;8.00;70.80
10453;DHT22;5274;51.992;8.518;2024-01-30T04:03:03;8.10;70.60
10453;DHT22;5274;51.992;8.518;2024-01-30T04:05:29;8.00;70.50
10453;DHT22;5274;51.992;8.518;2024-01-30T04:07:54;8.00;70.60
10453;DHT22;5274;51.992;8.518;2024-01-30T04:10:20;7.90;70.80
10453;DHT22;5274;51.992;8.518;2024-01-30T04:12:45;7.90;71.10
10453;DHT22;5274;51.992;8.518;2024-01-30T04:15:11;7.90;71.00
10453;DHT22;5274;51.992;8.518;2024-01-30T04:17:36;7.80;71.30
10453;DHT22;5274;51.992;8.518;2024-01-30T04:20:02;7.70;71.80
10453;DHT22;5274;51.992;8.518;2024-01-30T04:22:28;7.80;71.30
10453;DHT22;5274;51.992;8.518;2024-01-30T04:24:53;7.70;71.60
10453;DHT22;5274;51.992;8.518;2024-01-30T04:27:18;7.80;71.60
10453;DHT22;5274;51.992;8.518;2024-01-30T04:29:44;7.90;71.10
10453;DHT22;5274;51.992;8.518;2024-01-30T04:32:10;7.90;71.30
10453;DHT22;5274;51.992;8.518;2024-01-30T04:34:36;7.90;71.10
10453;DHT22;5274;51.992;8.518;2024-01-30T04:37:02;7.90;71.30
10453;DHT22;5274;51.992;8.518;2024-01-30T04:39:27;7.80;71.70
10453;DHT22;5274;51.992;8.518;2024-01-30T04:41:53;7.80;71.70
10453;DHT22;5274;51.992;8.518;2024-01-30T04:44:18;7.80;71.70
10453;DHT22;5274;51.992;8.518;2024-01-30T04:46:44;7.70;71.70
10453;DHT22;5274;51.992;8.518;2024-01-30T04:49:10;7.70;72.00
10453;DHT22;5274;51.992;8.518;2024-01-30T04:51:35;7.80;71.70
10453;DHT22;5274;51.992;8.518;2024-01-30T04:54:01;7.80;71.50
10453;DHT22;5274;51.992;8.518;2024-01-30T04:56:26;7.80;71.60
10453;DHT22;5274;51.992;8.518;2024-01-30T04:58:52;7.70;71.90
10453;DHT22;5274;51.992;8.518;2024-01-30T05:01:17;7.70;72.00
10453;DHT22;5274;51.992;8.518;2024-01-30T05:03:43;7.80;72.10
10453;DHT22;5274;51.992;8.518;2024-01-30T05:06:09;7.80;71.80
10453;DHT22;5274;51.992;8.518;2024-01-30T05:08:34;7.70;72.40
10453;DHT22;5274;51.992;8.518;2024-01-30T05:11:02;7.80;72.00
10453;DHT22;5274;51.992;8.518;2024-01-30T05:13:30;7.80;72.00
10453;DHT22;5274;51.992;8.518;2024-01-30T05:15:55;7.90;71.50
10453;DHT22;5274;51.992;8.518;2024-01-30T05:18:21;7.90;71.50
10453;DHT22;5274;51.992;8.518;2024-01-30T05:20:46;7.90;71.70
10453;DHT22;5274;51.992;8.518;2024-01-30T05:23:12;7.80;71.80
10453;DHT22;5274;51.992;8.518;2024-01-30T05:25:37;7.80;71.80
10453;DHT22;5274;51.992;8.518;2024-01-30T05:28:03;7.80;71.90
10453;DHT22;5274;51.992;8.518;2024-01-30T05:30:28;7.80;72.00
10453;DHT22;5274;51.992;8.518;2024-01-30T05:32:54;7.80;72.00
10453;DHT22;5274;51.992;8.518;2024-01-30T05:35:19;7.80;72.00
10453;DHT22;5274;51.992;8.518;2024-01-30T05:37:47;7.80;71.90
10453;DHT22;5274;51.992;8.518;2024-01-30T05:40:13;7.80;72.10
10453;DHT22;5274;51.992;8.518;2024-01-30T05:42:38;7.80;72.20
10453;DHT22;5274;51.992;8.518;2024-01-30T05:45:04;7.80;71.90
10453;DHT22;5274;51.992;8.518;2024-01-30T05:47:30;7.80;72.10
10453;DHT22;5274;51.992;8.518;2024-01-30T05:49:56;7.80;72.10
10453;DHT22;5274;51.992;8.518;2024-01-30T05:52:21;7.90;71.70
10453;DHT22;5274;51.992;8.518;2024-01-30T05:54:47;7.90;71.60
10453;DHT22;5274;51.992;8.518;2024-01-30T05:57:12;7.80;71.80
10453;DHT22;5274;51.992;8.518;2024-01-30T05:59:38;7.80;71.90
10453;DHT22;5274;51.992;8.518;2024-01-30T06:02:03;7.80;72.10
10453;DHT22;5274;51.992;8.518;2024-01-30T06:04:29;7.70;72.50
10453;DHT22;5274;51.992;8.518;2024-01-30T06:06:54;7.70;72.50
10453;DHT22;5274;51.992;8.518;2024-01-30T06:09:20;7.70;72.60
10453;DHT22;5274;51.992;8.518;2024-01-30T06:11:46;7.80;72.40
10453;DHT22;5274;51.992;8.518;2024-01-30T06:14:11;7.80;72.00
10453;DHT22;5274;51.992;8.518;2024-01-30T06:16:37;7.80;72.00
10453;DHT22;5274;51.992;8.518;2024-01-30T06:19:02;7.90;71.80
10453;DHT22;5274;51.992;8.518;2024-01-30T06:21:28;7.80;71.80
10453;DHT22;5274;51.992;8.518;2024-01-30T06:23:53;7.70;72.20
10453;DHT22;5274;51.992;8.518;2024-01-30T06:26:19;7.60;72.60
10453;DHT22;5274;51.992;8.518;2024-01-30T06:28:44;7.80;72.30
10453;DHT22;5274;51.992;8.518;2024-01-30T06:31:10;7.80;72.20
10453;DHT22;5274;51.992;8.518;2024-01-30T06:33:35;7.70;72.10
10453;DHT22;5274;51.992;8.518;2024-01-30T06:36:00;7.60;72.50
10453;DHT22;5274;51.992;8.518;2024-01-30T06:38:26;7.60;72.90
10453;DHT22;5274;51.992;8.518;2024-01-30T06:40:51;7.60;73.20
10453;DHT22;5274;51.992;8.518;2024-01-30T06:43:17;7.80;72.50
10453;DHT22;5274;51.992;8.518;2024-01-30T06:45:42;7.80;72.30
10453;DHT22;5274;51.992;8.518;2024-01-30T06:48:08;7.90;72.00
10453;DHT22;5274;51.992;8.518;2024-01-30T06:50:34;7.80;71.90
10453;DHT22;5274;51.992;8.518;2024-01-30T06:52:59;7.90;72.00
10453;DHT22;5274;51.992;8.518;2024-01-30T06:55:25;7.90;71.90
10453;DHT22;5274;51.992;8.518;2024-01-30T06:57:50;8.00;71.70
10453;DHT22;5274;51.992;8.518;2024-01-30T07:00:16;7.90;71.80
10453;DHT22;5274;51.992;8.518;2024-01-30T07:02:42;8.00;71.80
10453;DHT22;5274;51.992;8.518;2024-01-30T07:05:07;8.00;71.70
10453;DHT22;5274;51.992;8.518;2024-01-30T07:07:33;8.00;71.50
10453;DHT22;5274;51.992;8.518;2024-01-30T07:09:58;8.10;71.60
10453;DHT22;5274;51.992;8.518;2024-01-30T07:12:24;8.10;71.40
10453;DHT22;5274;51.992;8.518;2024-01-30T07:14:52;8.20;71.40
10453;DHT22;5274;51.992;8.518;2024-01-30T07:17:18;8.10;71.30
10453;DHT22;5274;51.992;8.518;2024-01-30T07:19:44;8.10;71.60
10453;DHT22;5274;51.992;8.518;2024-01-30T07:22:09;8.20;71.20
10453;DHT22;5274;51.992;8.518;2024-01-30T07:24:35;8.10;71.60
10453;DHT22;5274;51.992;8.518;2024-01-30T07:27:00;8.10;71.60
10453;DHT22;5274;51.992;8.518;2024-01-30T07:29:26;8.10;71.70
10453;DHT22;5274;51.992;8.518;2024-01-30T07:31:51;8.20;71.20
10453;DHT22;5274;51.992;8.518;2024-01-30T07:34:17;8.20;71.20
10453;DHT22;5274;51.992;8.518;2024-01-30T07:36:42;8.20;71.30
10453;DHT22;5274;51.992;8.518;2024-01-30T07:39:07;8.30;71.00
10453;DHT22;5274;51.992;8.518;2024-01-30T07:41:33;8.30;70.90
10453;DHT22;5274;51.992;8.518;2024-01-30T07:43:59;8.40;70.60
10453;DHT22;5274;51.992;8.518;2024-01-30T07:46:24;8.50;70.40
10453;DHT22;5274;51.992;8.518;2024-01-30T07:48:50;8.50;70.20
10453;DHT22;5274;51.992;8.518;2024-01-30T07:51:15;8.40;70.40
10453;DHT22;5274;51.992;8.518;2024-01-30T07:53:41;8.50;70.60
10453;DHT22;5274;51.992;8.518;2024-01-30T07:56:07;8.50;70.40
10453;DHT22;5274;51.992;8.518;2024-01-30T07:58:32;8.60;70.30
10453;DHT22;5274;51.992;8.518;2024-01-30T08:00:58;8.60;70.10
10453;DHT22;5274;51.992;8.518;2024-01-30T08:03:24;8.70;70.00
10453;DHT22;5274;51.992;8.518;2024-01-30T08:05:49;8.70;70.00
10453;DHT22;5274;51.992;8.518;2024-01-30T08:08:15;8.70;69.70
10453;DHT22;5274;51.992;8.518;2024-01-30T08:10:40;8.80;69.60
10453;DHT22;5274;51.992;8.518;2024-01-30T08:13:06;8.70;69.60
10453;DHT22;5274;51.992;8.518;2024-01-30T08:15:33;8.80;69.40
10453;DHT22;5274;51.992;8.518;2024-01-30T08:17:58;8.80;69.50
10453;DHT22;5274;51.992;8.518;2024-01-30T08:20:25;8.90;69.20
10453;DHT22;5274;51.992;8.518;2024-01-30T08:22:51;8.90;69.30
10453;DHT22;5274;51.992;8.518;2024-01-30T08:25:16;8.90;69.20
10453;DHT22;5274;51.992;8.518;2024-01-30T08:27:42;9.00;68.80
10453;DHT22;5274;51.992;8.518;2024-01-30T08:30:07;9.00;69.00
10453;DHT22;5274;51.992;8.518;2024-01-30T08:32:33;9.00;68.90
10453;DHT22;5274;51.992;8.518;2024-01-30T08:34:59;9.10;68.70
10453;DHT22;5274;51.992;8.518;2024-01-30T08:37:25;9.10;68.90
10453;DHT22;5274;51.992;8.518;2024-01-30T08:39:50;9.10;68.80
10453;DHT22;5274;51.992;8.518;2024-01-30T08:42:16;9.20;68.50
10453;DHT22;5274;51.992;8.518;2024-01-30T08:44:43;9.20;68.40
10453;DHT22;5274;51.992;8.518;2024-01-30T08:47:09;9.20;68.50
10453;DHT22;5274;51.992;8.518;2024-01-30T08:49:34;9.30;68.30
10453;DHT22;5274;51.992;8.518;2024-01-30T08:52:00;9.40;68.10
10453;DHT22;5274;51.992;8.518;2024-01-30T08:54:25;9.50;67.70
10453;DHT22;5274;51.992;8.518;2024-01-30T08:56:51;9.40;68.20
10453;DHT22;5274;51.992;8.518;2024-01-30T08:59:18;9.50;67.60
10453;DHT22;5274;51.992;8.518;2024-01-30T09:01:44;9.70;66.90
10453;DHT22;5274;51.992;8.518;2024-01-30T09:04:09;9.80;66.90
10453;DHT22;5274;51.992;8.518;2024-01-30T09:06:35;9.80;66.60
10453;DHT22;5274;51.992;8.518;2024-01-30T09:09:00;9.90;66.50
10453;DHT22;5274;51.992;8.518;2024-01-30T09:11:26;9.90;66.50
10453;DHT22;5274;51.992;8.518;2024-01-30T09:13:52;10.00;66.10
10453;DHT22;5274;51.992;8.518;2024-01-30T09:16:17;10.10;66.10
10453;DHT22;5274;51.992;8.518;2024-01-30T09:18:43;10.20;65.70
10453;DHT22;5274;51.992;8.518;2024-01-30T09:21:08;10.10;66.10
10453;DHT22;5274;51.992;8.518;2024-01-30T09:23:35;10.20;65.60
10453;DHT22;5274;51.992;8.518;2024-01-30T09:26:00;10.30;65.70
10453;DHT22;5274;51.992;8.518;2024-01-30T09:28:25;10.30;65.40
10453;DHT22;5274;51.992;8.518;2024-01-30T09:30:52;10.30;65.40
10453;DHT22;5274;51.992;8.518;2024-01-30T09:33:17;10.30;65.50
10453;DHT22;5274;51.992;8.518;2024-01-30T09:35:42;10.30;65.80
10453;DHT22;5274;51.992;8.518;2024-01-30T09:38:08;10.40;65.50
10453;DHT22;5274;51.992;8.518;2024-01-30T09:40:33;10.60;64.50
10453;DHT22;5274;51.992;8.518;2024-01-30T09:42:59;10.60;64.40
10453;DHT22;5274;51.992;8.518;2024-01-30T09:45:27;10.60;64.80
10453;DHT22;5274;51.992;8.518;2024-01-30T09:47:53;10.50;65.20
10453;DHT22;5274;51.992;8.518;2024-01-30T09:50:19;10.70;64.60
10453;DHT22;5274;51.992;8.518;2024-01-30T09:52:46;10.80;64.10
10453;DHT22;5274;51.992;8.518;2024-01-30T09:55:12;10.80;64.00
10453;DHT22;5274;51.992;8.518;2024-01-30T09:57:37;10.90;63.90
10453;DHT22;5274;51.992;8.518;2024-01-30T10:00:03;10.90;63.80
10453;DHT22;5274;51.992;8.518;2024-01-30T10:02:31;10.90;63.90
10453;DHT22;5274;51.992;8.518;2024-01-30T10:04:57;11.00;63.40
10453;DHT22;5274;51.992;8.518;2024-01-30T10:07:22;11.00;63.70
10453;DHT22;5274;51.992;8.518;2024-01-30T10:09:48;11.00;64.00
10453;DHT22;5274;51.992;8.518;2024-01-30T10:12:15;11.00;63.60
10453;DHT22;5274;51.992;8.518;2024-01-30T10:14:41;11.10;63.40
10453;DHT22;5274;51.992;8.518;2024-01-30T10:17:10;11.20;63.30
10453;DHT22;5274;51.992;8.518;2024-01-30T10:19:37;11.20;63.00
10453;DHT22;5274;51.992;8.518;2024-01-30T10:22:03;11.10;63.40
10453;DHT22;5274;51.992;8.518;2024-01-30T10:24:29;11.10;63.60
10453;DHT22;5274;51.992;8.518;2024-01-30T10:26:55;11.20;63.40
10453;DHT22;5274;51.992;8.518;2024-01-30T10:29:21;11.20;63.30
10453;DHT22;5274;51.992;8.518;2024-01-30T10:32:00;11.10;63.70
10453;DHT22;5274;51.992;8.518;2024-01-30T10:34:26;11.20;63.70
10453;DHT22;5274;51.992;8.518;2024-01-30T10:37:06;11.30;63.00
10453;DHT22;5274;51.992;8.518;2024-01-30T10:39:37;11.20;63.60
10453;DHT22;5274;51.992;8.518;2024-01-30T10:42:04;11.20;63.80
10453;DHT22;5274;51.992;8.518;2024-01-30T10:44:46;11.30;63.40
10453;DHT22;5274;51.992;8.518;2024-01-30T10:47:18;11.30;63.60
10453;DHT22;5274;51.992;8.518;2024-01-30T10:49:45;11.50;63.20
10453;DHT22;5274;51.992;8.518;2024-01-30T10:52:13;11.40;63.80
10453;DHT22;5274;51.992;8.518;2024-01-30T10:54:40;11.60;63.30
10453;DHT22;5274;51.992;8.518;2024-01-30T10:57:10;11.60;63.90
10453;DHT22;5274;51.992;8.518;2024-01-30T10:59:36;11.80;63.10
10453;DHT22;5274;51.992;8.518;2024-01-30T11:02:03;12.00;62.40
10453;DHT22;5274;51.992;8.518;2024-01-30T11:04:36;12.00;62.60
10453;DHT22;5274;51.992;8.518;2024-01-30T11:07:02;12.10;62.70
10453;DHT22;5274;51.992;8.518;2024-01-30T11:09:29;12.30;61.70
10453;DHT22;5274;51.992;8.518;2024-01-30T11:11:58;12.40;61.00
10453;DHT22;5274;51.992;8.518;2024-01-30T11:14:26;12.40;60.90
10453;DHT22;5274;51.992;8.518;2024-01-30T11:16:52;12.30;61.10
10453;DHT22;5274;51.992;8.518;2024-01-30T11:19:27;12.30;61.70
10453;DHT22;5274;51.992;8.518;2024-01-30T11:21:53;12.20;61.50
10453;DHT22;5274;51.992;8.518;2024-01-30T11:24:20;12.10;62.30
10453;DHT22;5274;51.992;8.518;2024-01-30T11:26:57;12.10;61.90
10453;DHT22;5274;51.992;8.518;2024-01-30T11:29:27;12.20;61.80
10453;DHT22;5274;51.992;8.518;2024-01-30T11:31:57;12.10;62.60
10453;DHT22;5274;51.992;8.518;2024-01-30T11:34:23;12.00;62.70
10453;DHT22;5274;51.992;8.518;2024-01-30T11:36:53;12.20;62.30
10453;DHT22;5274;51.992;8.518;2024-01-30T11:39:24;12.30;62.30
10453;DHT22;5274;51.992;8.518;2024-01-30T11:41:54;12.40;62.30
10453;DHT22;5274;51.992;8.518;2024-01-30T11:44:20;12.60;61.30
10453;DHT22;5274;51.992;8.518;2024-01-30T11:46:47;12.50;62.00
10453;DHT22;5274;51.992;8.518;2024-01-30T11:49:13;12.40;62.00
10453;DHT22;5274;51.992;8.518;2024-01-30T11:51:38;12.50;61.90
10453;DHT22;5274;51.992;8.518;2024-01-30T11:54:04;12.70;61.20
10453;DHT22;5274;51.992;8.518;2024-01-30T11:56:30;12.80;60.90
10453;DHT22;5274;51.992;8.518;2024-01-30T11:58:55;12.80;61.00
10453;DHT22;5274;51.992;8.518;2024-01-30T12:01:21;12.80;61.10
10453;DHT22;5274;51.992;8.518;2024-01-30T12:03:50;12.70;61.50
10453;DHT22;5274;51.992;8.518;2024-01-30T12:06:16;12.60;61.40
10453;DHT22;5274;51.992;8.518;2024-01-30T12:08:42;12.60;61.50
10453;DHT22;5274;51.992;8.518;2024-01-30T12:11:07;12.50;61.70
10453;DHT22;5274;51.992;8.518;2024-01-30T12:13:34;12.40;61.90
10453;DHT22;5274;51.992;8.518;2024-01-30T12:16:00;12.30;62.50
10453;DHT22;5274;51.992;8.518;2024-01-30T12:18:26;12.30;62.90
10453;DHT22;5274;51.992;8.518;2024-01-30T12:20:59;12.30;62.60
10453;DHT22;5274;51.992;8.518;2024-01-30T12:23:26;12.30;62.70
10453;DHT22;5274;51.992;8.518;2024-01-30T12:25:52;12.40;62.50
10453;DHT22;5274;51.992;8.518;2024-01-30T12:28:18;12.30;62.80
10453;DHT22;5274;51.992;8.518;2024-01-30T12:30:43;12.30;62.60
10453;DHT22;5274;51.992;8.518;2024-01-30T12:33:09;12.20;62.90
10453;DHT22;5274;51.992;8.518;2024-01-30T12:35:35;12.20;63.20
10453;DHT22;5274;51.992;8.518;2024-01-30T12:38:02;12.20;63.00
10453;DHT22;5274;51.992;8.518;2024-01-30T12:40:28;12.20;63.20
10453;DHT22;5274;51.992;8.518;2024-01-30T12:42:54;12.30;63.30
10453;DHT22;5274;51.992;8.518;2024-01-30T12:45:19;12.30;63.00
10453;DHT22;5274;51.992;8.518;2024-01-30T12:47:47;12.40;63.00
10453;DHT22;5274;51.992;8.518;2024-01-30T12:50:12;12.40;63.00
10453;DHT22;5274;51.992;8.518;2024-01-30T12:52:41;12.40;62.70
10453;DHT22;5274;51.992;8.518;2024-01-30T12:55:06;12.30;63.10
10453;DHT22;5274;51.992;8.518;2024-01-30T12:57:32;12.30;63.30
10453;DHT22;5274;51.992;8.518;2024-01-30T12:59:58;12.30;63.50
10453;DHT22;5274;51.992;8.518;2024-01-30T13:02:23;12.30;63.30
10453;DHT22;5274;51.992;8.518;2024-01-30T13:04:49;12.30;63.50
10453;DHT22;5274;51.992;8.518;2024-01-30T13:07:15;12.30;63.90
10453;DHT22;5274;51.992;8.518;2024-01-30T13:09:40;12.30;63.60
10453;DHT22;5274;51.992;8.518;2024-01-30T13:12:06;12.30;63.80
10453;DHT22;5274;51.992;8.518;2024-01-30T13:14:32;12.30;64.20
10453;DHT22;5274;51.992;8.518;2024-01-30T13:16:57;12.30;64.10
10453;DHT22;5274;51.992;8.518;2024-01-30T13:19:23;12.30;64.10
10453;DHT22;5274;51.992;8.518;2024-01-30T13:21:48;12.30;64.00
10453;DHT22;5274;51.992;8.518;2024-01-30T13:24:14;12.40;63.90
10453;DHT22;5274;51.992;8.518;2024-01-30T13:26:40;12.30;64.20
10453;DHT22;5274;51.992;8.518;2024-01-30T13:29:05;12.30;64.40
10453;DHT22;5274;51.992;8.518;2024-01-30T13:31:31;12.30;64.30
10453;DHT22;5274;51.992;8.518;2024-01-30T13:33:56;12.40;64.10
10453;DHT22;5274;51.992;8.518;2024-01-30T13:36:22;12.40;64.10
10453;DHT22;5274;51.992;8.518;2024-01-30T13:38:48;12.40;64.20
10453;DHT22;5274;51.992;8.518;2024-01-30T13:41:13;12.30;64.80
10453;DHT22;5274;51.992;8.518;2024-01-30T13:43:39;12.30;65.10
10453;DHT22;5274;51.992;8.518;2024-01-30T13:46:05;12.30;65.10
10453;DHT22;5274;51.992;8.518;2024-01-30T13:48:31;12.30;65.40
10453;DHT22;5274;51.992;8.518;2024-01-30T13:50:57;12.30;65.80
10453;DHT22;5274;51.992;8.518;2024-01-30T13:53:22;12.30;65.90
10453;DHT22;5274;51.992;8.518;2024-01-30T13:55:48;12.20;66.20
10453;DHT22;5274;51.992;8.518;2024-01-30T13:58:14;12.20;66.60
10453;DHT22;5274;51.992;8.518;2024-01-30T14:00:39;12.10;67.30
10453;DHT22;5274;51.992;8.518;2024-01-30T14:03:05;12.00;67.80
10453;DHT22;5274;51.992;8.518;2024-01-30T14:05:31;12.00;68.00
10453;DHT22;5274;51.992;8.518;2024-01-30T14:07:57;12.10;68.10
10453;DHT22;5274;51.992;8.518;2024-01-30T14:10:23;12.00;68.60
10453;DHT22;5274;51.992;8.518;2024-01-30T14:12:48;11.90;68.70
10453;DHT22;5274;51.992;8.518;2024-01-30T14:15:14;11.90;69.20
10453;DHT22;5274;51.992;8.518;2024-01-30T14:17:40;11.90;69.30
10453;DHT22;5274;51.992;8.518;2024-01-30T14:20:07;11.90;69.50
10453;DHT22;5274;51.992;8.518;2024-01-30T14:22:35;11.90;69.30
10453;DHT22;5274;51.992;8.518;2024-01-30T14:25:01;12.00;69.30
10453;DHT22;5274;51.992;8.518;2024-01-30T14:27:29;11.90;69.30
10453;DHT22;5274;51.992;8.518;2024-01-30T14:29:56;12.00;69.30
10453;DHT22;5274;51.992;8.518;2024-01-30T14:32:22;12.00;69.20
10453;DHT22;5274;51.992;8.518;2024-01-30T14:34:48;11.90;69.40
10453;DHT22;5274;51.992;8.518;2024-01-30T14:37:14;11.90;69.60
10453;DHT22;5274;51.992;8.518;2024-01-30T14:39:39;11.90;69.50
10453;DHT22;5274;51.992;8.518;2024-01-30T14:42:06;11.90;69.40
10453;DHT22;5274;51.992;8.518;2024-01-30T14:44:32;11.90;69.40
10453;DHT22;5274;51.992;8.518;2024-01-30T14:46:57;11.90;69.40
10453;DHT22;5274;51.992;8.518;2024-01-30T14:49:23;11.90;69.40
10453;DHT22;5274;51.992;8.518;2024-01-30T14:51:48;11.90;69.10
10453;DHT22;5274;51.992;8.518;2024-01-30T14:54:14;12.00;68.70
10453;DHT22;5274;51.992;8.518;2024-01-30T14:56:39;12.00;68.40
10453;DHT22;5274;51.992;8.518;2024-01-30T14:59:05;12.00;68.30
10453;DHT22;5274;51.992;8.518;2024-01-30T15:01:31;11.90;68.30
10453;DHT22;5274;51.992;8.518;2024-01-30T15:03:56;11.90;68.40
10453;DHT22;5274;51.992;8.518;2024-01-30T15:06:22;11.80;68.90
10453;DHT22;5274;51.992;8.518;2024-01-30T15:08:50;11.80;68.90
10453;DHT22;5274;51.992;8.518;2024-01-30T15:11:15;11.90;68.90
10453;DHT22;5274;51.992;8.518;2024-01-30T15:13:41;11.80;69.00
10453;DHT22;5274;51.992;8.518;2024-01-30T15:16:06;11.70;69.40
10453;DHT22;5274;51.992;8.518;2024-01-30T15:18:32;11.80;69.40
10453;DHT22;5274;51.992;8.518;2024-01-30T15:20:58;11.80;69.30
10453;DHT22;5274;51.992;8.518;2024-01-30T15:23:23;11.70;69.60
10453;DHT22;5274;51.992;8.518;2024-01-30T15:25:49;11.70;69.70
10453;DHT22;5274;51.992;8.518;2024-01-30T15:28:14;11.80;69.60
10453;DHT22;5274;51.992;8.518;2024-01-30T15:30:40;11.80;69.50
10453;DHT22;5274;51.992;8.518;2024-01-30T15:33:09;11.90;69.60
10453;DHT22;5274;51.992;8.518;2024-01-30T15:35:35;11.90;69.60
10453;DHT22;5274;51.992;8.518;2024-01-30T15:38:01;11.80;69.50
10453;DHT22;5274;51.992;8.518;2024-01-30T15:40:26;11.90;69.50
10453;DHT22;5274;51.992;8.518;2024-01-30T15:42:52;12.00;69.20
10453;DHT22;5274;51.992;8.518;2024-01-30T15:45:17;11.90;69.00
10453;DHT22;5274;51.992;8.518;2024-01-30T15:47:43;11.90;69.40